Time;durP1;ratioP1;P1;durP2;ratioP2;P2;SDS_P1;SDS_P2;PMS_P1;PMS_P2;Temp;Humidity;BMP_temperature;BMP_pressure;BME280_temperature;BME280_humidity;BME280_pressure;Samples;Min_cycle;Max_cycle;Signal;HPM_P1;HPM_P2
2023/09/27 00:00:20;;;;;;;12.55;8.18;;;17.40;79.10;;;;;;5027717;28;20029;-71
2023/09/27 00:02:46;;;;;;;11.30;7.93;;;17.40;79.20;;;;;;5030201;28;20051;-72
2023/09/27 00:05:13;;;;;;;12.50;8.55;;;17.40;79.20;;;;;;5047277;28;20431;-72
2023/09/27 00:07:40;;;;;;;11.45;7.57;;;17.50;79.30;;;;;;5031381;28;20027;-71
2023/09/27 00:10:09;;;;;;;14.13;9.18;;;17.50;79.30;;;;;;5029609;28;20057;-71
2023/09/27 00:12:35;;;;;;;12.43;8.18;;;17.60;79.40;;;;;;5031056;28;20044;-71
2023/09/27 00:15:02;;;;;;;13.15;9.23;;;17.50;79.30;;;;;;5018292;28;20038;-72
2023/09/27 00:17:29;;;;;;;13.75;8.35;;;17.60;79.40;;;;;;5030511;28;20060;-71
2023/09/27 00:19:55;;;;;;;12.18;7.80;;;17.60;79.40;;;;;;5026145;28;20041;-72
2023/09/27 00:22:21;;;;;;;12.07;8.35;;;17.60;79.50;;;;;;5026673;28;20031;-71
2023/09/27 00:24:47;;;;;;;13.52;8.75;;;17.60;79.50;;;;;;5026901;28;20133;-71
2023/09/27 00:27:13;;;;;;;12.18;8.40;;;17.70;79.60;;;;;;5029567;28;20493;-71
2023/09/27 00:29:38;;;;;;;11.65;8.25;;;17.60;79.60;;;;;;5026350;28;20125;-72
2023/09/27 00:32:05;;;;;;;11.57;7.75;;;17.70;79.70;;;;;;5027843;28;20033;-71
2023/09/27 00:34:31;;;;;;;12.80;8.50;;;17.60;79.70;;;;;;5043879;28;20025;-72
2023/09/27 00:36:57;;;;;;;11.52;7.80;;;17.70;79.70;;;;;;5031112;28;20018;-71
2023/09/27 00:39:22;;;;;;;11.65;8.30;;;17.70;79.80;;;;;;5030276;28;20486;-72
2023/09/27 00:41:48;;;;;;;11.25;7.82;;;17.70;79.90;;;;;;5030123;28;20029;-71
2023/09/27 00:44:14;;;;;;;12.63;7.90;;;17.70;79.90;;;;;;5041052;28;20022;-71
2023/09/27 00:46:40;;;;;;;12.18;8.27;;;17.70;79.90;;;;;;5043973;28;20453;-71
2023/09/27 00:49:08;;;;;;;14.40;7.95;;;17.70;79.90;;;;;;5028134;28;20035;-71
2023/09/27 00:51:34;;;;;;;12.23;8.38;;;17.70;80.00;;;;;;5021294;28;20427;-73
2023/09/27 00:54:01;;;;;;;12.45;8.82;;;17.70;80.00;;;;;;5044398;28;20128;-72
2023/09/27 00:56:27;;;;;;;12.80;7.75;;;17.70;80.00;;;;;;5030970;28;20340;-72
2023/09/27 00:58:55;;;;;;;14.38;8.48;;;17.70;80.00;;;;;;5045914;28;20483;-71
2023/09/27 01:01:22;;;;;;;12.68;8.27;;;17.70;80.00;;;;;;5037547;28;20021;-72
2023/09/27 01:03:49;;;;;;;14.70;8.40;;;17.70;80.10;;;;;;5022650;28;20067;-71
2023/09/27 01:06:15;;;;;;;11.85;8.10;;;17.70;80.10;;;;;;5023163;28;20029;-71
2023/09/27 01:08:41;;;;;;;13.88;9.02;;;17.60;80.00;;;;;;5029257;28;20078;-72
2023/09/27 01:11:07;;;;;;;14.23;8.93;;;17.60;80.00;;;;;;5022959;28;20438;-71
2023/09/27 01:13:33;;;;;;;13.60;8.60;;;17.60;80.00;;;;;;5028240;28;20036;-72
2023/09/27 01:15:59;;;;;;;13.93;9.60;;;17.50;80.00;;;;;;5024642;28;20040;-72
2023/09/27 01:18:27;;;;;;;14.63;9.20;;;17.50;80.00;;;;;;5029583;28;20368;-71
2023/09/27 01:20:53;;;;;;;12.68;8.90;;;17.50;80.00;;;;;;5023059;28;20030;-71
2023/09/27 01:23:19;;;;;;;12.40;8.70;;;17.50;80.00;;;;;;5029258;28;20018;-72
2023/09/27 01:25:48;;;;;;;12.70;8.98;;;17.50;80.00;;;;;;5030000;28;20032;-71
2023/09/27 01:28:14;;;;;;;13.38;9.20;;;17.40;79.90;;;;;;5019865;28;20474;-71
2023/09/27 01:30:40;;;;;;;14.73;9.02;;;17.40;79.90;;;;;;5030583;28;20030;-71
2023/09/27 01:33:10;;;;;;;13.30;8.77;;;17.40;79.90;;;;;;5030357;28;20040;-71
2023/09/27 01:35:40;;;;;;;13.88;9.00;;;17.40;79.90;;;;;;5042608;28;20203;-71
2023/09/27 01:38:07;;;;;;;12.10;8.88;;;17.30;79.80;;;;;;5043992;28;20021;-72
2023/09/27 01:40:40;;;;;;;13.10;9.38;;;17.30;79.80;;;;;;5030560;28;20033;-72
2023/09/27 01:43:06;;;;;;;12.60;8.60;;;17.30;79.80;;;;;;5024697;28;20030;-71
2023/09/27 01:45:32;;;;;;;11.95;8.77;;;17.30;79.80;;;;;;5027072;28;20044;-71
2023/09/27 01:47:59;;;;;;;12.23;8.75;;;17.20;79.70;;;;;;5042331;28;20028;-72
2023/09/27 01:50:27;;;;;;;12.50;8.55;;;17.20;79.80;;;;;;5043522;28;20041;-72
2023/09/27 01:52:56;;;;;;;12.77;8.65;;;17.20;79.80;;;;;;5019031;28;20062;-71
2023/09/27 01:55:23;;;;;;;11.40;8.48;;;17.20;79.80;;;;;;5040013;28;20097;-71
2023/09/27 01:57:49;;;;;;;11.38;8.20;;;17.20;79.80;;;;;;5029263;28;20029;-71
2023/09/27 02:00:17;;;;;;;12.38;8.75;;;17.20;79.80;;;;;;5037225;28;20029;-71
2023/09/27 02:03:00;;;;;;;15.18;9.52;;;17.20;79.70;;;;;;5021638;28;20049;-72
2023/09/27 02:05:28;;;;;;;16.35;9.63;;;17.10;79.60;;;;;;5029379;28;20139;-72
2023/09/27 02:07:54;;;;;;;13.27;9.52;;;17.10;79.70;;;;;;5030796;28;20447;-71
2023/09/27 02:10:20;;;;;;;12.75;9.73;;;17.10;79.70;;;;;;5009390;28;20145;-72
2023/09/27 02:12:46;;;;;;;14.00;9.60;;;17.10;79.70;;;;;;5047043;28;20037;-72
2023/09/27 02:15:13;;;;;;;15.50;9.85;;;17.10;79.70;;;;;;5028033;28;20052;-71
2023/09/27 02:17:40;;;;;;;13.10;9.15;;;17.10;79.70;;;;;;5030239;28;20033;-72
2023/09/27 02:20:08;;;;;;;13.85;9.65;;;17.10;79.70;;;;;;5024283;28;20025;-71
2023/09/27 02:22:34;;;;;;;14.30;9.95;;;17.00;79.60;;;;;;5029902;28;20029;-72
2023/09/27 02:25:00;;;;;;;11.85;9.05;;;17.00;79.60;;;;;;5022605;28;20362;-71
2023/09/27 02:27:26;;;;;;;12.10;9.20;;;17.00;79.60;;;;;;5027527;28;20108;-72
2023/09/27 02:29:52;;;;;;;12.30;9.00;;;17.00;79.60;;;;;;5027978;28;20025;-72
2023/09/27 02:32:18;;;;;;;14.05;9.15;;;17.00;79.60;;;;;;5032338;28;20076;-71
2023/09/27 02:34:44;;;;;;;13.00;9.20;;;17.00;79.60;;;;;;5027512;28;20087;-71
2023/09/27 02:37:10;;;;;;;13.68;9.02;;;16.90;79.60;;;;;;5043286;28;20106;-72
2023/09/27 02:39:36;;;;;;;13.38;9.45;;;16.90;79.60;;;;;;5045049;28;20117;-72
2023/09/27 02:42:03;;;;;;;12.73;9.38;;;16.90;79.60;;;;;;5026699;28;20018;-72
2023/09/27 02:44:29;;;;;;;12.27;9.07;;;16.90;79.60;;;;;;5026228;28;20026;-72
2023/09/27 02:46:58;;;;;;;13.00;9.30;;;16.90;79.60;;;;;;5029493;28;20024;-71
2023/09/27 02:49:24;;;;;;;13.25;8.95;;;16.90;79.60;;;;;;5026190;28;20040;-72
2023/09/27 02:51:53;;;;;;;15.43;9.30;;;16.90;79.60;;;;;;5025980;28;20030;-71
2023/09/27 02:54:19;;;;;;;13.77;8.98;;;16.90;79.60;;;;;;5027319;28;20077;-72
2023/09/27 02:56:45;;;;;;;15.07;9.27;;;16.80;79.50;;;;;;5030189;28;20049;-71
2023/09/27 02:59:14;;;;;;;15.82;9.32;;;16.90;79.60;;;;;;5032235;28;20030;-72
2023/09/27 03:01:41;;;;;;;13.15;9.48;;;16.80;79.60;;;;;;5030138;28;20029;-71
2023/09/27 03:04:09;;;;;;;13.52;9.73;;;16.80;79.60;;;;;;5048430;28;20021;-71
2023/09/27 03:06:36;;;;;;;14.43;9.95;;;16.80;79.60;;;;;;5032472;28;20037;-71
2023/09/27 03:09:03;;;;;;;12.65;8.88;;;16.80;79.60;;;;;;5031368;28;20087;-72
2023/09/27 03:11:29;;;;;;;12.05;8.75;;;16.80;79.60;;;;;;5042557;28;20025;-71
2023/09/27 03:13:56;;;;;;;13.77;9.82;;;16.80;79.50;;;;;;5034627;28;20040;-72
2023/09/27 03:16:23;;;;;;;12.20;8.50;;;16.80;79.60;;;;;;5029717;28;20052;-72
2023/09/27 03:18:49;;;;;;;13.48;10.13;;;16.80;79.50;;;;;;5032505;28;20021;-72
2023/09/27 03:21:17;;;;;;;14.80;10.25;;;16.70;79.60;;;;;;5047390;28;20446;-71
2023/09/27 03:23:43;;;;;;;12.80;8.98;;;16.70;79.50;;;;;;5032725;28;21525;-71
2023/09/27 03:26:09;;;;;;;14.75;9.57;;;16.70;79.50;;;;;;5032791;28;20091;-72
2023/09/27 03:28:35;;;;;;;12.65;9.13;;;16.70;79.50;;;;;;5046686;28;20215;-72
2023/09/27 03:31:02;;;;;;;12.70;9.45;;;16.70;79.50;;;;;;5044420;28;20033;-71
2023/09/27 03:33:29;;;;;;;12.90;9.95;;;16.70;79.50;;;;;;5020401;28;20033;-71
2023/09/27 03:35:55;;;;;;;12.80;10.00;;;16.70;79.50;;;;;;5010924;28;20030;-71
2023/09/27 03:38:24;;;;;;;14.05;10.48;;;16.70;79.50;;;;;;5030510;28;20096;-71
2023/09/27 03:40:51;;;;;;;13.32;10.10;;;16.60;79.40;;;;;;5046149;28;20474;-72
2023/09/27 03:43:17;;;;;;;13.45;10.20;;;16.60;79.40;;;;;;5020784;28;20358;-71
2023/09/27 03:45:43;;;;;;;13.38;9.80;;;16.60;79.40;;;;;;5017158;28;20474;-71
2023/09/27 03:48:09;;;;;;;14.90;9.48;;;16.60;79.40;;;;;;5045303;28;20179;-72
2023/09/27 03:50:35;;;;;;;16.38;10.02;;;16.60;79.40;;;;;;5048583;28;20120;-71
2023/09/27 03:53:00;;;;;;;15.88;10.55;;;16.60;79.40;;;;;;5045326;28;20056;-72
2023/09/27 03:55:27;;;;;;;15.95;10.40;;;16.60;79.40;;;;;;5045671;28;20034;-71
2023/09/27 03:57:53;;;;;;;13.68;9.93;;;16.50;79.40;;;;;;5026702;28;20048;-71
2023/09/27 04:00:19;;;;;;;12.98;10.25;;;16.50;79.40;;;;;;5029600;28;20398;-71
2023/09/27 04:02:47;;;;;;;14.35;10.05;;;16.50;79.40;;;;;;5025210;28;20014;-72
2023/09/27 04:05:14;;;;;;;14.02;10.52;;;16.50;79.40;;;;;;5045331;28;20022;-71
2023/09/27 04:07:41;;;;;;;14.25;10.45;;;16.50;79.40;;;;;;5029450;28;20045;-71
2023/09/27 04:10:08;;;;;;;13.07;10.02;;;16.50;79.40;;;;;;5021799;28;20087;-71
2023/09/27 04:12:37;;;;;;;14.05;9.93;;;16.50;79.40;;;;;;5031098;28;20363;-72
2023/09/27 04:15:08;;;;;;;14.40;10.35;;;16.50;79.40;;;;;;5032038;28;20068;-71
2023/09/27 04:17:35;;;;;;;12.32;8.57;;;16.50;79.40;;;;;;5031227;28;20116;-71
2023/09/27 04:20:14;;;;;;;13.13;9.27;;;16.50;79.50;;;;;;5029490;28;20029;-71
2023/09/27 04:22:42;;;;;;;12.45;9.40;;;16.50;79.40;;;;;;5026967;28;20468;-72
2023/09/27 04:25:09;;;;;;;14.15;9.43;;;16.50;79.40;;;;;;5023376;28;20030;-71
2023/09/27 04:27:34;;;;;;;13.82;9.70;;;16.50;79.40;;;;;;5031555;28;20474;-72
2023/09/27 04:30:00;;;;;;;13.93;10.15;;;16.50;79.40;;;;;;5033706;28;20079;-72
2023/09/27 04:32:26;;;;;;;16.42;9.95;;;16.50;79.40;;;;;;5031257;28;20183;-71
2023/09/27 04:34:51;;;;;;;14.50;10.27;;;16.40;79.40;;;;;;5029693;28;20453;-71
2023/09/27 04:37:17;;;;;;;12.45;9.25;;;16.40;79.40;;;;;;5027593;28;21345;-71
2023/09/27 04:39:43;;;;;;;13.52;10.00;;;16.40;79.40;;;;;;5029805;28;20028;-71
2023/09/27 04:42:09;;;;;;;14.13;10.98;;;16.40;79.40;;;;;;5028621;28;20335;-72
2023/09/27 04:44:34;;;;;;;14.02;9.73;;;16.40;79.40;;;;;;5028573;28;20116;-71
2023/09/27 04:47:00;;;;;;;14.38;10.05;;;16.40;79.50;;;;;;5030256;28;20069;-71
2023/09/27 04:49:27;;;;;;;11.85;9.25;;;16.40;79.40;;;;;;5031570;28;20029;-71
2023/09/27 04:51:52;;;;;;;13.00;9.57;;;16.40;79.50;;;;;;5030300;28;20132;-64
2023/09/27 04:54:18;;;;;;;14.40;10.35;;;16.30;79.40;;;;;;5012319;28;20118;-64
2023/09/27 04:56:44;;;;;;;13.30;9.57;;;16.30;79.40;;;;;;5044609;28;20021;-64
2023/09/27 04:59:10;;;;;;;13.38;9.70;;;16.30;79.40;;;;;;5030432;28;20034;-64
2023/09/27 05:01:36;;;;;;;14.38;9.38;;;16.30;79.40;;;;;;5029217;28;20465;-64
2023/09/27 05:04:02;;;;;;;14.00;9.98;;;16.30;79.40;;;;;;5021102;28;20022;-63
2023/09/27 05:06:28;;;;;;;12.43;9.52;;;16.30;79.40;;;;;;5045681;28;20029;-64
2023/09/27 05:08:54;;;;;;;14.27;10.10;;;16.30;79.50;;;;;;5030746;28;20056;-63
2023/09/27 05:11:20;;;;;;;14.52;10.63;;;16.30;79.50;;;;;;5034378;28;20033;-64
2023/09/27 05:13:46;;;;;;;12.70;9.65;;;16.30;79.50;;;;;;5031987;28;20103;-64
2023/09/27 05:16:12;;;;;;;14.10;10.23;;;16.30;79.50;;;;;;5032141;28;20049;-64
2023/09/27 05:18:38;;;;;;;13.15;9.57;;;16.30;79.50;;;;;;5032300;28;20040;-64
2023/09/27 05:21:07;;;;;;;14.25;10.55;;;16.30;79.50;;;;;;5029170;28;20451;-64
2023/09/27 05:23:33;;;;;;;13.80;10.65;;;16.30;79.50;;;;;;5035916;28;20025;-64
2023/09/27 05:25:59;;;;;;;13.32;10.32;;;16.30;79.60;;;;;;5031480;28;20025;-65
2023/09/27 05:28:25;;;;;;;13.40;9.85;;;16.30;79.50;;;;;;5031476;28;20033;-64
2023/09/27 05:30:51;;;;;;;13.02;9.85;;;16.30;79.60;;;;;;5030242;28;20029;-64
2023/09/27 05:33:20;;;;;;;14.07;9.57;;;16.30;79.50;;;;;;5029104;28;20481;-66
2023/09/27 05:35:50;;;;;;;15.27;10.10;;;16.30;79.60;;;;;;5030584;28;20425;-65
2023/09/27 05:38:16;;;;;;;14.68;10.90;;;16.30;79.60;;;;;;5027817;28;20531;-66
2023/09/27 05:40:42;;;;;;;15.05;10.18;;;16.30;79.60;;;;;;5040428;28;20123;-65
2023/09/27 05:43:07;;;;;;;12.88;9.82;;;16.30;79.60;;;;;;5050659;28;20112;-64
2023/09/27 05:45:33;;;;;;;15.80;10.32;;;16.30;79.60;;;;;;5038261;28;20464;-66
2023/09/27 05:48:00;;;;;;;15.73;10.90;;;16.30;79.60;;;;;;5051413;28;20029;-66
2023/09/27 05:50:25;;;;;;;15.57;11.13;;;16.30;79.60;;;;;;5050030;28;20029;-66
2023/09/27 05:52:51;;;;;;;13.05;9.98;;;16.40;79.70;;;;;;5052424;28;20032;-65
2023/09/27 05:55:17;;;;;;;14.48;10.07;;;16.40;79.60;;;;;;5034228;28;20429;-66
2023/09/27 05:57:44;;;;;;;16.60;10.98;;;16.40;79.60;;;;;;5053025;28;20068;-65
2023/09/27 06:00:37;;;;;;;16.52;11.07;;;16.40;79.60;;;;;;5034207;28;20362;-68
2023/09/27 06:03:04;;;;;;;13.25;10.13;;;16.40;79.60;;;;;;5034631;28;20026;-68
2023/09/27 06:05:30;;;;;;;15.60;10.85;;;16.40;80.20;;;;;;5036752;28;20086;-66
2023/09/27 06:07:56;;;;;;;13.57;10.60;;;16.50;79.60;;;;;;5053794;28;20376;-65
2023/09/27 06:10:22;;;;;;;16.23;10.88;;;16.50;79.50;;;;;;5039513;28;20030;-67
2023/09/27 06:12:48;;;;;;;15.50;10.57;;;16.50;79.50;;;;;;5037007;28;20053;-67
2023/09/27 06:15:14;;;;;;;15.30;11.95;;;16.60;79.50;;;;;;5030556;28;20041;-66
2023/09/27 06:17:40;;;;;;;18.88;11.02;;;16.60;79.50;;;;;;5031425;28;20455;-65
2023/09/27 06:20:11;;;;;;;13.38;10.93;;;16.60;79.40;;;;;;5025944;28;20037;-66
2023/09/27 06:22:39;;;;;;;17.88;11.82;;;16.60;79.40;;;;;;5026557;28;20021;-65
2023/09/27 06:25:05;;;;;;;15.30;11.60;;;16.70;79.50;;;;;;5028077;28;20029;-65
2023/09/27 06:27:31;;;;;;;16.10;11.65;;;16.70;79.40;;;;;;5030575;28;20385;-66
2023/09/27 06:29:57;;;;;;;15.68;11.75;;;16.70;79.40;;;;;;5029886;28;20026;-65
2023/09/27 06:32:23;;;;;;;16.25;12.98;;;16.70;79.40;;;;;;5030318;28;20048;-65
2023/09/27 06:34:49;;;;;;;17.33;12.52;;;16.80;79.40;;;;;;5032495;28;20072;-65
2023/09/27 06:37:14;;;;;;;15.13;12.10;;;16.80;79.40;;;;;;5034667;28;20040;-67
2023/09/27 06:39:41;;;;;;;15.68;12.32;;;16.80;79.40;;;;;;5035255;28;20033;-66
2023/09/27 06:42:07;;;;;;;20.98;12.13;;;16.80;79.40;;;;;;5017994;28;20095;-68
2023/09/27 06:44:33;;;;;;;15.30;11.75;;;16.80;79.40;;;;;;5036658;28;20037;-65
2023/09/27 06:46:59;;;;;;;17.15;13.18;;;16.80;79.40;;;;;;5034918;28;20029;-65
2023/09/27 06:49:25;;;;;;;17.15;12.82;;;16.90;79.40;;;;;;5019286;28;20033;-65
2023/09/27 06:51:53;;;;;;;17.73;13.30;;;16.90;79.30;;;;;;5020523;28;20350;-65
2023/09/27 06:54:19;;;;;;;17.48;13.55;;;17.00;79.30;;;;;;5032090;28;20030;-66
2023/09/27 06:56:44;;;;;;;17.67;13.25;;;17.00;79.20;;;;;;5034150;28;20032;-66
2023/09/27 06:59:10;;;;;;;15.70;13.18;;;17.00;79.20;;;;;;5033922;28;20017;-65
2023/09/27 07:01:36;;;;;;;17.27;13.93;;;17.10;79.20;;;;;;5021408;28;20363;-65
2023/09/27 07:04:05;;;;;;;18.30;14.60;;;17.20;79.20;;;;;;5032256;28;20032;-65
2023/09/27 07:06:31;;;;;;;16.38;12.90;;;17.20;79.00;;;;;;5035472;28;20028;-65
2023/09/27 07:08:57;;;;;;;18.92;13.90;;;17.30;79.00;;;;;;5037504;28;20380;-65
2023/09/27 07:11:23;;;;;;;19.48;13.93;;;17.40;79.00;;;;;;5033817;28;20043;-65
2023/09/27 07:13:50;;;;;;;16.73;13.32;;;17.40;78.90;;;;;;5034023;28;20076;-65
2023/09/27 07:16:26;;;;;;;18.63;14.10;;;17.50;78.70;;;;;;5028500;28;20045;-65
2023/09/27 07:18:53;;;;;;;18.88;14.23;;;17.50;78.60;;;;;;5032202;28;20041;-65
2023/09/27 07:21:23;;;;;;;18.35;14.93;;;17.60;78.60;;;;;;5047375;28;20465;-65
2023/09/27 07:23:49;;;;;;;17.90;14.43;;;17.60;78.50;;;;;;5035174;28;20033;-65
2023/09/27 07:26:16;;;;;;;19.35;13.98;;;17.70;78.50;;;;;;5030816;28;20025;-65
2023/09/27 07:28:42;;;;;;;18.05;14.00;;;17.70;78.30;;;;;;5032025;28;20021;-65
2023/09/27 07:31:08;;;;;;;19.35;14.55;;;17.70;78.30;;;;;;5046992;28;20331;-65
2023/09/27 07:33:34;;;;;;;19.33;14.20;;;17.80;78.30;;;;;;5035077;28;20032;-65
2023/09/27 07:36:00;;;;;;;17.60;15.02;;;17.80;78.30;;;;;;5046488;28;20025;-65
2023/09/27 07:38:26;;;;;;;19.15;16.00;;;17.80;78.30;;;;;;5033275;28;20377;-66
2023/09/27 07:40:52;;;;;;;17.13;14.07;;;17.80;78.30;;;;;;5033184;28;20053;-65
2023/09/27 07:43:18;;;;;;;18.52;14.20;;;17.80;78.40;;;;;;5032569;28;20030;-65
2023/09/27 07:45:47;;;;;;;17.27;14.68;;;17.90;78.50;;;;;;5035155;28;20029;-66
2023/09/27 07:48:13;;;;;;;18.90;14.80;;;17.90;78.50;;;;;;5033306;28;20036;-65
2023/09/27 07:50:40;;;;;;;21.42;14.98;;;17.90;78.50;;;;;;5034974;28;20487;-65
2023/09/27 07:53:08;;;;;;;17.60;13.98;;;17.90;78.60;;;;;;5037026;28;20041;-65
2023/09/27 07:55:43;;;;;;;20.35;14.32;;;17.90;78.60;;;;;;5037029;28;20029;-65
2023/09/27 07:58:09;;;;;;;16.42;13.77;;;18.00;78.80;;;;;;5035851;28;20052;-65
2023/09/27 08:00:35;;;;;;;18.67;14.77;;;18.20;78.70;;;;;;5035700;28;20270;-66
2023/09/27 08:03:02;;;;;;;18.50;14.00;;;18.40;78.40;;;;;;5035569;28;20021;-65
2023/09/27 08:05:28;;;;;;;17.75;14.02;;;18.50;78.00;;;;;;5019156;28;20095;-66
2023/09/27 08:07:54;;;;;;;18.20;14.63;;;18.70;77.70;;;;;;5035464;28;20026;-65
2023/09/27 08:10:21;;;;;;;17.02;13.93;;;18.80;77.40;;;;;;5035540;28;20033;-66
2023/09/27 08:12:47;;;;;;;18.38;13.82;;;18.90;77.20;;;;;;5051430;28;20028;-65
2023/09/27 08:15:13;;;;;;;18.20;13.40;;;18.90;77.10;;;;;;5055199;28;20037;-65
2023/09/27 08:17:39;;;;;;;15.90;13.68;;;19.10;76.90;;;;;;5056453;28;20045;-66
2023/09/27 08:20:11;;;;;;;17.55;14.10;;;19.20;76.70;;;;;;5052618;28;20064;-66
2023/09/27 08:22:39;;;;;;;19.35;13.63;;;19.30;76.30;;;;;;5055054;28;20110;-65
2023/09/27 08:25:08;;;;;;;15.65;12.77;;;19.40;76.10;;;;;;5054925;28;20040;-65
2023/09/27 08:27:34;;;;;;;17.35;13.15;;;19.50;75.90;;;;;;5038332;28;20040;-66
2023/09/27 08:30:04;;;;;;;16.88;13.65;;;19.70;75.70;;;;;;5053444;28;20028;-66
2023/09/27 08:32:30;;;;;;;17.25;13.93;;;19.80;75.40;;;;;;5046991;28;20025;-65
2023/09/27 08:34:56;;;;;;;15.95;12.32;;;19.90;75.20;;;;;;5050077;28;20343;-66
2023/09/27 08:37:22;;;;;;;17.20;12.20;;;20.00;74.90;;;;;;5055913;28;20029;-65
2023/09/27 08:39:47;;;;;;;16.65;12.95;;;20.20;74.50;;;;;;5043769;28;20034;-65
2023/09/27 08:42:13;;;;;;;16.85;12.52;;;20.30;74.10;;;;;;5054071;28;20031;-65
2023/09/27 08:44:39;;;;;;;16.60;12.85;;;20.50;73.80;;;;;;5039029;28;20040;-66
2023/09/27 08:47:06;;;;;;;15.25;12.57;;;20.60;73.30;;;;;;5043993;28;20024;-66
2023/09/27 08:49:32;;;;;;;18.25;11.85;;;20.50;73.20;;;;;;5054681;28;20033;-66
2023/09/27 08:51:58;;;;;;;13.10;10.68;;;20.50;73.40;;;;;;5054590;28;20021;-66
2023/09/27 08:54:24;;;;;;;12.38;10.00;;;20.60;73.30;;;;;;5046330;28;20130;-66
2023/09/27 08:56:51;;;;;;;15.32;11.10;;;20.90;72.80;;;;;;5049044;28;20029;-66
2023/09/27 08:59:18;;;;;;;13.23;9.73;;;21.10;72.20;;;;;;5042028;28;20041;-66
2023/09/27 09:01:45;;;;;;;13.48;9.90;;;21.20;71.80;;;;;;5035917;28;20037;-66
2023/09/27 09:04:11;;;;;;;13.57;10.10;;;21.30;71.70;;;;;;5032966;28;20053;-65
2023/09/27 09:06:39;;;;;;;14.93;10.60;;;21.50;71.30;;;;;;5044889;28;20399;-66
2023/09/27 09:09:11;;;;;;;13.35;10.02;;;21.70;70.80;;;;;;5055042;28;20033;-66
2023/09/27 09:11:54;;;;;;;14.18;10.18;;;21.90;70.40;;;;;;5033826;28;20428;-66
2023/09/27 09:14:37;;;;;;;11.73;9.32;;;22.00;69.80;;;;;;5046225;28;20041;-66
2023/09/27 09:17:03;;;;;;;12.45;9.48;;;22.10;69.40;;;;;;5010074;28;20406;-66
2023/09/27 09:19:31;;;;;;;14.20;10.57;;;22.10;69.40;;;;;;5049011;28;20068;-66
2023/09/27 09:22:08;;;;;;;12.90;9.10;;;22.10;69.40;;;;;;5034805;28;20033;-66
2023/09/27 09:24:41;;;;;;;14.57;10.10;;;22.10;69.50;;;;;;5029761;28;20017;-66
2023/09/27 09:27:16;;;;;;;11.93;8.27;;;22.10;69.30;;;;;;5031416;28;20036;-66
2023/09/27 09:29:47;;;;;;;12.85;8.25;;;22.30;68.90;;;;;;5034227;28;20116;-66
2023/09/27 09:32:18;;;;;;;11.82;7.43;;;22.50;68.70;;;;;;5026482;28;20034;-66
2023/09/27 09:34:44;;;;;;;;;;;22.70;68.50;;;;;;5030345;28;20084;-66
2023/09/27 09:37:23;;;;;;;13.05;7.82;;;22.80;68.30;;;;;;5033116;28;19909;-66
2023/09/27 09:39:53;;;;;;;12.43;8.70;;;22.80;68.20;;;;;;5034371;28;20450;-66
2023/09/27 09:42:33;;;;;;;13.70;8.50;;;22.90;68.10;;;;;;5036563;28;20083;-67
2023/09/27 09:45:07;;;;;;;13.43;8.60;;;22.90;68.20;;;;;;5047287;28;20109;-67
2023/09/27 09:47:35;;;;;;;12.65;8.07;;;22.80;68.00;;;;;;5036358;28;20024;-66
2023/09/27 09:50:06;;;;;;;11.95;8.27;;;22.70;68.00;;;;;;5033152;28;20502;-66
2023/09/27 09:52:35;;;;;;;10.60;7.00;;;22.60;68.10;;;;;;5044653;28;20030;-66
2023/09/27 09:55:03;;;;;;;10.70;6.28;;;22.50;68.20;;;;;;5031557;28;20480;-66
2023/09/27 09:57:36;;;;;;;9.32;6.05;;;22.50;68.40;;;;;;5036712;28;20064;-66
2023/09/27 10:00:17;;;;;;;10.90;7.22;;;22.50;68.30;;;;;;5029343;28;20038;-66
2023/09/27 10:02:46;;;;;;;;;;;22.50;68.30;;;;;;5030058;28;20060;-66
2023/09/27 10:05:14;;;;;;;9.55;5.78;;;22.40;68.60;;;;;;5029210;28;19909;-66
2023/09/27 10:07:43;;;;;;;10.63;5.80;;;22.30;68.80;;;;;;5035214;28;20524;-66
2023/09/27 10:10:09;;;;;;;8.63;5.55;;;22.30;68.90;;;;;;5035184;28;20080;-66
2023/09/27 10:12:36;;;;;;;10.05;6.10;;;22.40;68.90;;;;;;5034290;28;20029;-66
2023/09/27 10:15:04;;;;;;;9.35;5.93;;;22.50;68.70;;;;;;5035938;28;20029;-66
2023/09/27 10:17:31;;;;;;;10.60;5.80;;;22.50;68.50;;;;;;5025223;28;20037;-66
2023/09/27 10:20:12;;;;;;;8.43;6.00;;;22.60;68.50;;;;;;5037264;28;20029;-66
2023/09/27 10:22:43;;;;;;;9.52;5.70;;;22.70;68.60;;;;;;5027263;28;20039;-67
2023/09/27 10:25:25;;;;;;;10.55;5.53;;;22.90;68.20;;;;;;5047049;28;20036;-66
2023/09/27 10:28:08;;;;;;;9.63;5.18;;;23.10;67.70;;;;;;5029005;28;20026;-66
2023/09/27 10:30:45;;;;;;;8.77;4.78;;;23.10;67.00;;;;;;5035023;28;20026;-66
2023/09/27 10:33:17;;;;;;;7.57;4.28;;;23.10;67.00;;;;;;5044372;28;20030;-66
2023/09/27 10:35:44;;;;;;;10.07;5.15;;;23.30;67.00;;;;;;5034672;28;20093;-66
2023/09/27 10:38:10;;;;;;;8.25;5.03;;;23.40;66.50;;;;;;5043213;28;20091;-66
2023/09/27 10:40:43;;;;;;;7.65;4.13;;;23.30;66.40;;;;;;5036949;28;20051;-66
2023/09/27 10:43:10;;;;;;;9.32;5.40;;;23.20;66.40;;;;;;5030586;28;20030;-66
2023/09/27 10:45:35;;;;;;;8.07;4.45;;;23.10;66.50;;;;;;5033087;28;20123;-66
2023/09/27 10:48:18;;;;;;;9.23;3.78;;;23.00;66.60;;;;;;5044875;28;20116;-65
2023/09/27 10:50:57;;;;;;;7.53;4.70;;;23.00;66.70;;;;;;5036829;28;20473;-66
2023/09/27 10:53:30;;;;;;;9.40;4.82;;;23.00;66.70;;;;;;5026146;28;20045;-66
2023/09/27 10:55:55;;;;;;;8.85;5.07;;;23.00;66.70;;;;;;5037101;28;20091;-66
2023/09/27 10:58:21;;;;;;;8.15;4.30;;;23.00;66.50;;;;;;5030071;28;20037;-66
2023/09/27 11:01:01;;;;;;;8.68;4.45;;;23.00;66.40;;;;;;5031464;28;20036;-66
2023/09/27 11:03:29;;;;;;;8.38;5.15;;;23.00;66.40;;;;;;5029673;28;20099;-67
2023/09/27 11:06:06;;;;;;;7.70;4.63;;;23.00;66.40;;;;;;5036703;28;20201;-66
2023/09/27 11:08:32;;;;;;;7.40;3.90;;;23.00;66.40;;;;;;5029335;28;20112;-67
2023/09/27 11:10:58;;;;;;;9.38;3.38;;;23.00;66.20;;;;;;5030414;28;20113;-66
2023/09/27 11:13:25;;;;;;;7.32;4.35;;;23.10;65.70;;;;;;5052147;28;20124;-66
2023/09/27 11:15:51;;;;;;;9.63;4.80;;;23.20;65.30;;;;;;5038583;28;20056;-66
2023/09/27 11:18:16;;;;;;;7.38;4.65;;;23.10;65.00;;;;;;5051561;28;20111;-66
2023/09/27 11:20:42;;;;;;;9.77;5.00;;;23.10;64.70;;;;;;5052152;28;20071;-66
2023/09/27 11:23:08;;;;;;;8.90;4.07;;;23.10;64.70;;;;;;5054840;28;20083;-66
2023/09/27 11:25:40;;;;;;;8.68;4.50;;;23.00;64.50;;;;;;5050132;28;20025;-66
2023/09/27 11:28:06;;;;;;;8.30;4.22;;;23.10;64.40;;;;;;5057072;28;20041;-66
2023/09/27 11:30:33;;;;;;;8.50;4.30;;;23.00;64.30;;;;;;5055985;28;20029;-66
2023/09/27 11:33:01;;;;;;;9.27;4.18;;;23.00;64.30;;;;;;5039360;28;20049;-66
2023/09/27 11:35:27;;;;;;;7.60;3.83;;;23.00;64.40;;;;;;5052215;28;20033;-66
2023/09/27 11:38:10;;;;;;;7.43;3.70;;;22.90;64.50;;;;;;5043835;28;20040;-66
2023/09/27 11:40:40;;;;;;;8.10;4.05;;;22.80;64.50;;;;;;5028879;28;20045;-66
2023/09/27 11:43:06;;;;;;;8.40;4.32;;;22.80;64.80;;;;;;5051914;28;20036;-66
2023/09/27 11:45:48;;;;;;;8.40;4.38;;;22.80;64.90;;;;;;5064198;28;20119;-66
2023/09/27 11:48:16;;;;;;;9.63;4.45;;;22.80;64.80;;;;;;5049914;28;20124;-66
2023/09/27 11:50:42;;;;;;;8.27;4.00;;;22.90;64.90;;;;;;5055889;28;20017;-66
2023/09/27 11:53:08;;;;;;;8.20;4.10;;;23.00;64.90;;;;;;5056820;28;20445;-66
2023/09/27 11:55:36;;;;;;;7.60;4.00;;;23.10;64.90;;;;;;5056450;28;20029;-66
2023/09/27 11:58:01;;;;;;;7.35;3.65;;;23.30;64.70;;;;;;5048893;28;20029;-66
2023/09/27 12:00:29;;;;;;;13.07;4.32;;;23.50;64.40;;;;;;5051867;28;20074;-66
2023/09/27 12:02:54;;;;;;;6.97;3.50;;;23.60;63.80;;;;;;5055302;28;20090;-66
2023/09/27 12:05:20;;;;;;;8.00;3.72;;;23.70;63.30;;;;;;5056777;28;20025;-66
2023/09/27 12:07:47;;;;;;;7.78;4.13;;;23.80;63.00;;;;;;5049850;28;20032;-66
2023/09/27 12:10:13;;;;;;;6.50;3.38;;;23.90;62.50;;;;;;5048517;28;20040;-66
2023/09/27 12:12:38;;;;;;;8.18;4.13;;;23.90;62.10;;;;;;5050059;28;20025;-66
2023/09/27 12:15:05;;;;;;;7.70;4.07;;;23.90;61.80;;;;;;5054736;28;20362;-66
2023/09/27 12:17:31;;;;;;;7.38;4.13;;;24.00;61.60;;;;;;5042758;28;20033;-66
2023/09/27 12:19:57;;;;;;;7.25;3.60;;;24.00;61.30;;;;;;5051669;28;20035;-66
2023/09/27 12:22:24;;;;;;;7.10;3.75;;;24.00;61.50;;;;;;5056123;28;20029;-66
2023/09/27 12:24:51;;;;;;;8.23;3.78;;;24.00;62.20;;;;;;5055840;28;20090;-66
2023/09/27 12:27:16;;;;;;;8.50;3.72;;;24.00;61.50;;;;;;5035525;28;20087;-66
2023/09/27 12:29:42;;;;;;;9.20;4.75;;;24.00;61.30;;;;;;5049562;28;20041;-66
2023/09/27 12:32:08;;;;;;;7.38;3.92;;;23.90;60.80;;;;;;5055083;28;20024;-66
2023/09/27 12:34:34;;;;;;;10.57;4.43;;;23.90;60.70;;;;;;5054049;28;20025;-66
2023/09/27 12:37:00;;;;;;;8.18;3.67;;;23.80;60.60;;;;;;5054510;28;20025;-66